Terminal Aerodrome Forecast
Issued by NWS

Home | Current Version | Previous Version | Text Only | Print | Product List | Glossary On
Versions: 1 2 3 4 5 6 7 8 9 10 11 12 13
000
FTUS43 KAPX 252328
TAFAPN
TAF
KAPN 252328Z 2600/2624 VRB03KT P6SM VCTS BKN060CB
     FM260200 28004KT P6SM BKN060
     FM260700 VRB03KT P6SM BKN050
     FM261100 00000KT P6SM VCTS BKN060CB
     FM261300 23004KT P6SM VCSH BKN050 BKN130
     FM261800 15005KT P6SM BKN040
     FM262100 09005KT P6SM BKN050=

USA.gov is the U.S. government's official web portal to all federal, state and local government web resources and services.